Airport View

Enter AWOS ICAO identifier for current METAR.

ex. KFNL

KMTV 202255Z AUTO 00000KT 10SM CLR 17/15 A3024 RMK AO2 T01660151

20 Oct 2020 22:58

Frequency: 118.45

Phone: 276-957-3784

Other Area AWOS: KSIF - KMWK - KINT - KGSO

TAF AMD KINT 202016Z 2020/2118 17004KT P6SM FEW250 FM210900 00000KT P6SM BKN015 TEMPO 2109/2113 3SM BR FM211400 VRB03KT P6SM SCT015